sensor_id;sensor_type;location;lat;lon;timestamp;P1;durP1;ratioP1;P2;durP2;ratioP2
27566;SDS011;15006;48.584;9.186;2024-01-11T00:00:42;106.30;;;48.13;;
27566;SDS011;15006;48.584;9.186;2024-01-11T00:03:09;105.03;;;44.85;;
27566;SDS011;15006;48.584;9.186;2024-01-11T00:05:35;108.03;;;46.70;;
27566;SDS011;15006;48.584;9.186;2024-01-11T00:08:01;96.85;;;43.28;;
27566;SDS011;15006;48.584;9.186;2024-01-11T00:10:28;93.22;;;44.03;;
27566;SDS011;15006;48.584;9.186;2024-01-11T00:12:53;94.75;;;43.17;;
27566;SDS011;15006;48.584;9.186;2024-01-11T00:15:19;95.32;;;43.13;;
27566;SDS011;15006;48.584;9.186;2024-01-11T00:17:45;91.93;;;42.03;;
27566;SDS011;15006;48.584;9.186;2024-01-11T00:20:11;92.82;;;42.15;;
27566;SDS011;15006;48.584;9.186;2024-01-11T00:22:37;95.63;;;44.15;;
27566;SDS011;15006;48.584;9.186;2024-01-11T00:25:03;88.10;;;39.90;;
27566;SDS011;15006;48.584;9.186;2024-01-11T00:27:30;85.82;;;40.20;;
27566;SDS011;15006;48.584;9.186;2024-01-11T00:29:56;83.57;;;38.08;;
27566;SDS011;15006;48.584;9.186;2024-01-11T00:32:21;86.97;;;38.95;;
27566;SDS011;15006;48.584;9.186;2024-01-11T00:34:47;85.57;;;38.10;;
27566;SDS011;15006;48.584;9.186;2024-01-11T00:37:13;82.97;;;38.55;;
27566;SDS011;15006;48.584;9.186;2024-01-11T00:39:39;83.22;;;37.53;;
27566;SDS011;15006;48.584;9.186;2024-01-11T00:42:05;86.45;;;39.25;;
27566;SDS011;15006;48.584;9.186;2024-01-11T00:44:31;89.93;;;41.00;;
27566;SDS011;15006;48.584;9.186;2024-01-11T00:46:58;92.45;;;40.78;;
27566;SDS011;15006;48.584;9.186;2024-01-11T00:49:24;94.53;;;40.80;;
27566;SDS011;15006;48.584;9.186;2024-01-11T00:51:50;89.20;;;41.30;;
27566;SDS011;15006;48.584;9.186;2024-01-11T00:54:16;81.60;;;37.83;;
27566;SDS011;15006;48.584;9.186;2024-01-11T00:56:42;93.55;;;41.42;;
27566;SDS011;15006;48.584;9.186;2024-01-11T00:59:08;92.30;;;41.72;;
27566;SDS011;15006;48.584;9.186;2024-01-11T01:01:34;87.38;;;39.92;;
27566;SDS011;15006;48.584;9.186;2024-01-11T01:04:00;90.45;;;40.80;;
27566;SDS011;15006;48.584;9.186;2024-01-11T01:06:26;90.05;;;41.17;;
27566;SDS011;15006;48.584;9.186;2024-01-11T01:08:53;93.32;;;41.72;;
27566;SDS011;15006;48.584;9.186;2024-01-11T01:11:20;99.93;;;43.05;;
27566;SDS011;15006;48.584;9.186;2024-01-11T01:13:46;99.45;;;42.17;;
27566;SDS011;15006;48.584;9.186;2024-01-11T01:16:12;104.07;;;44.33;;
27566;SDS011;15006;48.584;9.186;2024-01-11T01:18:39;100.85;;;44.88;;
27566;SDS011;15006;48.584;9.186;2024-01-11T01:21:05;106.88;;;45.33;;
27566;SDS011;15006;48.584;9.186;2024-01-11T01:23:32;109.63;;;45.25;;
27566;SDS011;15006;48.584;9.186;2024-01-11T01:25:58;101.97;;;44.42;;
27566;SDS011;15006;48.584;9.186;2024-01-11T01:28:24;105.57;;;43.70;;
27566;SDS011;15006;48.584;9.186;2024-01-11T01:30:49;113.47;;;45.80;;
27566;SDS011;15006;48.584;9.186;2024-01-11T01:33:15;99.05;;;42.72;;
27566;SDS011;15006;48.584;9.186;2024-01-11T01:35:41;101.05;;;43.70;;
27566;SDS011;15006;48.584;9.186;2024-01-11T01:38:07;103.22;;;44.60;;
27566;SDS011;15006;48.584;9.186;2024-01-11T01:40:33;105.35;;;44.60;;
27566;SDS011;15006;48.584;9.186;2024-01-11T01:42:59;108.45;;;45.65;;
27566;SDS011;15006;48.584;9.186;2024-01-11T01:45:27;105.93;;;45.35;;
27566;SDS011;15006;48.584;9.186;2024-01-11T01:47:53;110.30;;;46.05;;
27566;SDS011;15006;48.584;9.186;2024-01-11T01:50:20;114.05;;;47.45;;
27566;SDS011;15006;48.584;9.186;2024-01-11T01:52:47;112.90;;;47.20;;
27566;SDS011;15006;48.584;9.186;2024-01-11T01:55:14;108.70;;;46.45;;
27566;SDS011;15006;48.584;9.186;2024-01-11T01:57:41;111.50;;;48.35;;
27566;SDS011;15006;48.584;9.186;2024-01-11T02:00:09;100.03;;;43.92;;
27566;SDS011;15006;48.584;9.186;2024-01-11T02:02:37;107.93;;;45.25;;
27566;SDS011;15006;48.584;9.186;2024-01-11T02:05:06;98.85;;;44.20;;
27566;SDS011;15006;48.584;9.186;2024-01-11T02:07:32;102.28;;;44.33;;
27566;SDS011;15006;48.584;9.186;2024-01-11T02:09:58;100.20;;;45.17;;
27566;SDS011;15006;48.584;9.186;2024-01-11T02:12:25;94.82;;;43.28;;
27566;SDS011;15006;48.584;9.186;2024-01-11T02:14:52;94.20;;;41.95;;
27566;SDS011;15006;48.584;9.186;2024-01-11T02:17:18;101.18;;;42.45;;
27566;SDS011;15006;48.584;9.186;2024-01-11T02:19:45;95.20;;;42.17;;
27566;SDS011;15006;48.584;9.186;2024-01-11T02:22:26;95.18;;;41.30;;
27566;SDS011;15006;48.584;9.186;2024-01-11T02:24:57;96.32;;;40.83;;
27566;SDS011;15006;48.584;9.186;2024-01-11T02:27:23;93.18;;;42.40;;
27566;SDS011;15006;48.584;9.186;2024-01-11T02:29:49;92.90;;;40.08;;
27566;SDS011;15006;48.584;9.186;2024-01-11T02:32:15;93.05;;;41.60;;
27566;SDS011;15006;48.584;9.186;2024-01-11T02:34:42;94.68;;;40.33;;
27566;SDS011;15006;48.584;9.186;2024-01-11T02:37:08;94.18;;;41.53;;
27566;SDS011;15006;48.584;9.186;2024-01-11T02:39:34;97.57;;;40.80;;
27566;SDS011;15006;48.584;9.186;2024-01-11T02:42:00;104.40;;;45.25;;
27566;SDS011;15006;48.584;9.186;2024-01-11T02:44:27;94.32;;;41.78;;
27566;SDS011;15006;48.584;9.186;2024-01-11T02:46:53;91.82;;;42.00;;
27566;SDS011;15006;48.584;9.186;2024-01-11T02:49:19;95.55;;;42.03;;
27566;SDS011;15006;48.584;9.186;2024-01-11T02:51:45;95.20;;;42.65;;
27566;SDS011;15006;48.584;9.186;2024-01-11T02:54:11;97.00;;;42.38;;
27566;SDS011;15006;48.584;9.186;2024-01-11T02:56:37;96.68;;;42.10;;
27566;SDS011;15006;48.584;9.186;2024-01-11T02:59:02;96.65;;;42.72;;
27566;SDS011;15006;48.584;9.186;2024-01-11T03:01:28;95.90;;;40.95;;
27566;SDS011;15006;48.584;9.186;2024-01-11T03:03:54;94.10;;;42.28;;
27566;SDS011;15006;48.584;9.186;2024-01-11T03:06:21;92.40;;;41.13;;
27566;SDS011;15006;48.584;9.186;2024-01-11T03:08:48;79.75;;;39.03;;
27566;SDS011;15006;48.584;9.186;2024-01-11T03:11:14;87.93;;;40.13;;
27566;SDS011;15006;48.584;9.186;2024-01-11T03:13:41;96.68;;;41.40;;
27566;SDS011;15006;48.584;9.186;2024-01-11T03:16:08;92.65;;;41.08;;
27566;SDS011;15006;48.584;9.186;2024-01-11T03:18:34;95.18;;;42.10;;
27566;SDS011;15006;48.584;9.186;2024-01-11T03:20:59;89.80;;;39.78;;
27566;SDS011;15006;48.584;9.186;2024-01-11T03:23:25;91.75;;;40.35;;
27566;SDS011;15006;48.584;9.186;2024-01-11T03:25:51;91.85;;;40.35;;
27566;SDS011;15006;48.584;9.186;2024-01-11T03:28:17;89.32;;;40.00;;
27566;SDS011;15006;48.584;9.186;2024-01-11T03:30:43;90.55;;;41.05;;
27566;SDS011;15006;48.584;9.186;2024-01-11T03:33:09;102.13;;;39.40;;
27566;SDS011;15006;48.584;9.186;2024-01-11T03:35:35;91.53;;;40.40;;
27566;SDS011;15006;48.584;9.186;2024-01-11T03:38:04;96.82;;;40.25;;
27566;SDS011;15006;48.584;9.186;2024-01-11T03:40:30;92.95;;;42.45;;
27566;SDS011;15006;48.584;9.186;2024-01-11T03:42:56;90.80;;;40.08;;
27566;SDS011;15006;48.584;9.186;2024-01-11T03:45:22;87.88;;;38.53;;
27566;SDS011;15006;48.584;9.186;2024-01-11T03:47:48;93.70;;;40.03;;
27566;SDS011;15006;48.584;9.186;2024-01-11T03:50:14;93.68;;;40.03;;
27566;SDS011;15006;48.584;9.186;2024-01-11T03:52:40;90.25;;;38.92;;
27566;SDS011;15006;48.584;9.186;2024-01-11T03:55:07;93.65;;;40.45;;
27566;SDS011;15006;48.584;9.186;2024-01-11T03:57:33;88.72;;;40.05;;
27566;SDS011;15006;48.584;9.186;2024-01-11T04:00:00;83.75;;;38.60;;
27566;SDS011;15006;48.584;9.186;2024-01-11T04:02:26;86.97;;;38.35;;
27566;SDS011;15006;48.584;9.186;2024-01-11T04:04:52;90.00;;;40.13;;
27566;SDS011;15006;48.584;9.186;2024-01-11T04:07:19;94.40;;;41.58;;
27566;SDS011;15006;48.584;9.186;2024-01-11T04:09:45;95.35;;;41.00;;
27566;SDS011;15006;48.584;9.186;2024-01-11T04:12:11;86.22;;;39.10;;
27566;SDS011;15006;48.584;9.186;2024-01-11T04:14:39;92.32;;;39.92;;
27566;SDS011;15006;48.584;9.186;2024-01-11T04:17:06;97.35;;;41.17;;
27566;SDS011;15006;48.584;9.186;2024-01-11T04:19:32;90.70;;;41.05;;
27566;SDS011;15006;48.584;9.186;2024-01-11T04:21:58;94.38;;;42.10;;
27566;SDS011;15006;48.584;9.186;2024-01-11T04:24:24;94.85;;;42.53;;
27566;SDS011;15006;48.584;9.186;2024-01-11T04:26:50;95.15;;;41.33;;
27566;SDS011;15006;48.584;9.186;2024-01-11T04:29:16;89.30;;;39.47;;
27566;SDS011;15006;48.584;9.186;2024-01-11T04:31:42;93.20;;;41.05;;
27566;SDS011;15006;48.584;9.186;2024-01-11T04:34:08;85.07;;;39.55;;
27566;SDS011;15006;48.584;9.186;2024-01-11T04:36:36;84.93;;;37.83;;
27566;SDS011;15006;48.584;9.186;2024-01-11T04:39:04;96.07;;;41.50;;
27566;SDS011;15006;48.584;9.186;2024-01-11T04:41:31;87.50;;;40.05;;
27566;SDS011;15006;48.584;9.186;2024-01-11T04:43:57;90.97;;;41.38;;
27566;SDS011;15006;48.584;9.186;2024-01-11T04:46:23;93.90;;;40.83;;
27566;SDS011;15006;48.584;9.186;2024-01-11T04:48:49;93.55;;;40.60;;
27566;SDS011;15006;48.584;9.186;2024-01-11T04:51:16;86.50;;;39.53;;
27566;SDS011;15006;48.584;9.186;2024-01-11T04:53:43;98.68;;;42.38;;
27566;SDS011;15006;48.584;9.186;2024-01-11T04:56:10;95.78;;;41.13;;
27566;SDS011;15006;48.584;9.186;2024-01-11T04:58:40;92.57;;;41.70;;
27566;SDS011;15006;48.584;9.186;2024-01-11T05:01:10;96.03;;;41.75;;
27566;SDS011;15006;48.584;9.186;2024-01-11T05:03:38;92.78;;;39.85;;
27566;SDS011;15006;48.584;9.186;2024-01-11T05:06:04;91.05;;;39.70;;
27566;SDS011;15006;48.584;9.186;2024-01-11T05:08:30;96.45;;;41.30;;
27566;SDS011;15006;48.584;9.186;2024-01-11T05:10:56;101.55;;;42.67;;
27566;SDS011;15006;48.584;9.186;2024-01-11T05:13:22;91.95;;;41.30;;
27566;SDS011;15006;48.584;9.186;2024-01-11T05:15:48;91.47;;;39.25;;
27566;SDS011;15006;48.584;9.186;2024-01-11T05:18:14;91.28;;;40.50;;
27566;SDS011;15006;48.584;9.186;2024-01-11T05:20:40;94.20;;;40.35;;
27566;SDS011;15006;48.584;9.186;2024-01-11T05:23:06;93.03;;;41.63;;
27566;SDS011;15006;48.584;9.186;2024-01-11T05:25:32;89.93;;;40.60;;
27566;SDS011;15006;48.584;9.186;2024-01-11T05:28:01;89.82;;;39.40;;
27566;SDS011;15006;48.584;9.186;2024-01-11T05:30:29;92.75;;;41.10;;
27566;SDS011;15006;48.584;9.186;2024-01-11T05:32:55;93.03;;;39.88;;
27566;SDS011;15006;48.584;9.186;2024-01-11T05:35:21;88.55;;;40.15;;
27566;SDS011;15006;48.584;9.186;2024-01-11T05:37:52;88.78;;;39.38;;
27566;SDS011;15006;48.584;9.186;2024-01-11T05:40:20;95.65;;;40.22;;
27566;SDS011;15006;48.584;9.186;2024-01-11T05:42:47;89.72;;;40.63;;
27566;SDS011;15006;48.584;9.186;2024-01-11T05:45:13;92.82;;;43.05;;
27566;SDS011;15006;48.584;9.186;2024-01-11T05:47:42;89.95;;;40.85;;
27566;SDS011;15006;48.584;9.186;2024-01-11T05:50:09;98.07;;;41.85;;
27566;SDS011;15006;48.584;9.186;2024-01-11T05:52:36;94.13;;;42.50;;
27566;SDS011;15006;48.584;9.186;2024-01-11T05:55:03;90.25;;;41.15;;
27566;SDS011;15006;48.584;9.186;2024-01-11T05:57:30;96.20;;;41.75;;
27566;SDS011;15006;48.584;9.186;2024-01-11T05:59:56;109.70;;;47.33;;
27566;SDS011;15006;48.584;9.186;2024-01-11T06:02:22;130.35;;;52.80;;
27566;SDS011;15006;48.584;9.186;2024-01-11T06:04:48;130.65;;;51.67;;
27566;SDS011;15006;48.584;9.186;2024-01-11T06:07:14;112.25;;;48.58;;
27566;SDS011;15006;48.584;9.186;2024-01-11T06:09:41;113.35;;;48.55;;
27566;SDS011;15006;48.584;9.186;2024-01-11T06:12:06;95.07;;;44.55;;
27566;SDS011;15006;48.584;9.186;2024-01-11T06:14:34;100.20;;;44.58;;
27566;SDS011;15006;48.584;9.186;2024-01-11T06:17:00;99.35;;;43.00;;
27566;SDS011;15006;48.584;9.186;2024-01-11T06:19:26;94.22;;;42.22;;
27566;SDS011;15006;48.584;9.186;2024-01-11T06:21:52;100.30;;;41.50;;
27566;SDS011;15006;48.584;9.186;2024-01-11T06:24:18;93.05;;;42.40;;
27566;SDS011;15006;48.584;9.186;2024-01-11T06:26:44;95.47;;;41.92;;
27566;SDS011;15006;48.584;9.186;2024-01-11T06:29:10;92.90;;;41.97;;
27566;SDS011;15006;48.584;9.186;2024-01-11T06:31:36;96.93;;;42.80;;
27566;SDS011;15006;48.584;9.186;2024-01-11T06:34:02;90.07;;;41.70;;
27566;SDS011;15006;48.584;9.186;2024-01-11T06:36:27;89.82;;;41.50;;
27566;SDS011;15006;48.584;9.186;2024-01-11T06:38:54;97.60;;;43.30;;
27566;SDS011;15006;48.584;9.186;2024-01-11T06:41:20;96.55;;;44.20;;
27566;SDS011;15006;48.584;9.186;2024-01-11T06:43:46;102.63;;;45.67;;
27566;SDS011;15006;48.584;9.186;2024-01-11T06:46:12;92.68;;;42.78;;
27566;SDS011;15006;48.584;9.186;2024-01-11T06:48:38;100.03;;;43.72;;
27566;SDS011;15006;48.584;9.186;2024-01-11T06:51:05;102.43;;;45.40;;
27566;SDS011;15006;48.584;9.186;2024-01-11T06:53:30;102.45;;;46.22;;
27566;SDS011;15006;48.584;9.186;2024-01-11T06:55:56;112.13;;;49.42;;
27566;SDS011;15006;48.584;9.186;2024-01-11T06:58:22;100.47;;;45.88;;
27566;SDS011;15006;48.584;9.186;2024-01-11T07:00:51;103.03;;;46.40;;
27566;SDS011;15006;48.584;9.186;2024-01-11T07:03:17;102.13;;;45.55;;
27566;SDS011;15006;48.584;9.186;2024-01-11T07:05:43;166.77;;;67.47;;
27566;SDS011;15006;48.584;9.186;2024-01-11T07:08:09;154.57;;;64.72;;
27566;SDS011;15006;48.584;9.186;2024-01-11T07:10:35;141.93;;;62.47;;
27566;SDS011;15006;48.584;9.186;2024-01-11T07:13:02;175.25;;;70.45;;
27566;SDS011;15006;48.584;9.186;2024-01-11T07:15:29;229.18;;;93.50;;
27566;SDS011;15006;48.584;9.186;2024-01-11T07:17:55;215.43;;;86.32;;
27566;SDS011;15006;48.584;9.186;2024-01-11T07:20:20;201.25;;;82.18;;
27566;SDS011;15006;48.584;9.186;2024-01-11T07:22:46;195.20;;;79.55;;
27566;SDS011;15006;48.584;9.186;2024-01-11T07:25:12;166.35;;;69.30;;
27566;SDS011;15006;48.584;9.186;2024-01-11T07:27:39;140.60;;;61.22;;
27566;SDS011;15006;48.584;9.186;2024-01-11T07:30:05;132.68;;;58.97;;
27566;SDS011;15006;48.584;9.186;2024-01-11T07:32:32;134.13;;;59.55;;
27566;SDS011;15006;48.584;9.186;2024-01-11T07:34:58;164.88;;;70.78;;
27566;SDS011;15006;48.584;9.186;2024-01-11T07:37:23;166.63;;;69.28;;
27566;SDS011;15006;48.584;9.186;2024-01-11T07:39:51;155.48;;;66.13;;
27566;SDS011;15006;48.584;9.186;2024-01-11T07:42:17;160.90;;;66.82;;
27566;SDS011;15006;48.584;9.186;2024-01-11T07:44:44;161.40;;;70.00;;
27566;SDS011;15006;48.584;9.186;2024-01-11T07:47:10;148.60;;;65.00;;
27566;SDS011;15006;48.584;9.186;2024-01-11T07:49:36;152.57;;;66.78;;
27566;SDS011;15006;48.584;9.186;2024-01-11T07:52:02;156.13;;;67.95;;
27566;SDS011;15006;48.584;9.186;2024-01-11T07:54:30;157.15;;;68.40;;
27566;SDS011;15006;48.584;9.186;2024-01-11T07:56:56;152.52;;;66.97;;
27566;SDS011;15006;48.584;9.186;2024-01-11T07:59:22;158.50;;;67.70;;
27566;SDS011;15006;48.584;9.186;2024-01-11T08:01:48;164.40;;;70.03;;
27566;SDS011;15006;48.584;9.186;2024-01-11T08:04:15;165.63;;;69.32;;
27566;SDS011;15006;48.584;9.186;2024-01-11T08:06:41;155.55;;;67.65;;
27566;SDS011;15006;48.584;9.186;2024-01-11T08:09:07;175.23;;;72.32;;
27566;SDS011;15006;48.584;9.186;2024-01-11T08:11:35;191.30;;;81.95;;
27566;SDS011;15006;48.584;9.186;2024-01-11T08:14:01;219.38;;;90.55;;
27566;SDS011;15006;48.584;9.186;2024-01-11T08:16:27;223.40;;;95.88;;
27566;SDS011;15006;48.584;9.186;2024-01-11T08:18:53;250.65;;;107.07;;
27566;SDS011;15006;48.584;9.186;2024-01-11T08:21:19;241.10;;;104.47;;
27566;SDS011;15006;48.584;9.186;2024-01-11T08:23:45;211.68;;;92.93;;
27566;SDS011;15006;48.584;9.186;2024-01-11T08:26:14;229.30;;;96.45;;
27566;SDS011;15006;48.584;9.186;2024-01-11T08:28:40;208.13;;;89.40;;
27566;SDS011;15006;48.584;9.186;2024-01-11T08:31:07;209.25;;;88.85;;
27566;SDS011;15006;48.584;9.186;2024-01-11T08:33:34;222.82;;;101.65;;
27566;SDS011;15006;48.584;9.186;2024-01-11T08:36:02;209.48;;;95.05;;
27566;SDS011;15006;48.584;9.186;2024-01-11T08:38:32;187.07;;;83.78;;
27566;SDS011;15006;48.584;9.186;2024-01-11T08:40:58;175.02;;;78.53;;
27566;SDS011;15006;48.584;9.186;2024-01-11T08:43:25;165.38;;;76.07;;
27566;SDS011;15006;48.584;9.186;2024-01-11T08:45:51;159.05;;;71.30;;
27566;SDS011;15006;48.584;9.186;2024-01-11T08:48:17;147.15;;;67.20;;
27566;SDS011;15006;48.584;9.186;2024-01-11T08:50:43;154.77;;;67.15;;
27566;SDS011;15006;48.584;9.186;2024-01-11T08:53:09;145.43;;;67.25;;
27566;SDS011;15006;48.584;9.186;2024-01-11T08:55:35;139.02;;;64.80;;
27566;SDS011;15006;48.584;9.186;2024-01-11T08:58:01;129.80;;;62.65;;
27566;SDS011;15006;48.584;9.186;2024-01-11T09:00:27;123.95;;;56.88;;
27566;SDS011;15006;48.584;9.186;2024-01-11T09:02:53;112.38;;;54.97;;
27566;SDS011;15006;48.584;9.186;2024-01-11T09:05:19;120.18;;;54.53;;
27566;SDS011;15006;48.584;9.186;2024-01-11T09:07:44;105.15;;;50.15;;
27566;SDS011;15006;48.584;9.186;2024-01-11T09:10:10;107.53;;;51.22;;
27566;SDS011;15006;48.584;9.186;2024-01-11T09:12:37;96.60;;;48.35;;
27566;SDS011;15006;48.584;9.186;2024-01-11T09:15:03;105.57;;;49.45;;
27566;SDS011;15006;48.584;9.186;2024-01-11T09:17:30;94.15;;;48.72;;
27566;SDS011;15006;48.584;9.186;2024-01-11T09:19:56;99.18;;;47.80;;
27566;SDS011;15006;48.584;9.186;2024-01-11T09:22:22;105.20;;;49.55;;
27566;SDS011;15006;48.584;9.186;2024-01-11T09:24:48;103.57;;;49.08;;
27566;SDS011;15006;48.584;9.186;2024-01-11T09:27:14;102.95;;;51.53;;
27566;SDS011;15006;48.584;9.186;2024-01-11T09:29:44;101.35;;;50.42;;
27566;SDS011;15006;48.584;9.186;2024-01-11T09:32:11;101.75;;;50.88;;
27566;SDS011;15006;48.584;9.186;2024-01-11T09:34:38;102.93;;;49.97;;
27566;SDS011;15006;48.584;9.186;2024-01-11T09:37:04;100.97;;;48.22;;
27566;SDS011;15006;48.584;9.186;2024-01-11T09:39:31;99.78;;;48.00;;
27566;SDS011;15006;48.584;9.186;2024-01-11T09:42:06;93.13;;;45.95;;
27566;SDS011;15006;48.584;9.186;2024-01-11T09:44:35;99.30;;;48.53;;
27566;SDS011;15006;48.584;9.186;2024-01-11T09:47:08;98.68;;;47.97;;
27566;SDS011;15006;48.584;9.186;2024-01-11T09:49:37;102.53;;;49.30;;
27566;SDS011;15006;48.584;9.186;2024-01-11T09:52:04;105.88;;;49.85;;
27566;SDS011;15006;48.584;9.186;2024-01-11T09:54:30;106.15;;;49.75;;
27566;SDS011;15006;48.584;9.186;2024-01-11T09:56:58;106.75;;;49.25;;
27566;SDS011;15006;48.584;9.186;2024-01-11T09:59:26;103.93;;;48.90;;
27566;SDS011;15006;48.584;9.186;2024-01-11T10:01:52;105.35;;;48.38;;
27566;SDS011;15006;48.584;9.186;2024-01-11T10:04:18;104.90;;;49.17;;
27566;SDS011;15006;48.584;9.186;2024-01-11T10:06:44;108.28;;;49.38;;
27566;SDS011;15006;48.584;9.186;2024-01-11T10:09:11;107.53;;;50.03;;
27566;SDS011;15006;48.584;9.186;2024-01-11T10:11:38;105.15;;;48.63;;
27566;SDS011;15006;48.584;9.186;2024-01-11T10:14:04;104.25;;;49.58;;
27566;SDS011;15006;48.584;9.186;2024-01-11T10:18:59;110.65;;;51.30;;
27566;SDS011;15006;48.584;9.186;2024-01-11T10:21:26;106.07;;;50.17;;
27566;SDS011;15006;48.584;9.186;2024-01-11T10:23:52;105.72;;;50.85;;
27566;SDS011;15006;48.584;9.186;2024-01-11T10:26:18;103.47;;;49.47;;
27566;SDS011;15006;48.584;9.186;2024-01-11T10:28:45;101.82;;;48.50;;
27566;SDS011;15006;48.584;9.186;2024-01-11T10:31:11;106.80;;;49.30;;
27566;SDS011;15006;48.584;9.186;2024-01-11T10:33:40;105.78;;;51.08;;
27566;SDS011;15006;48.584;9.186;2024-01-11T10:36:06;98.82;;;49.05;;
27566;SDS011;15006;48.584;9.186;2024-01-11T10:38:35;101.30;;;50.13;;
27566;SDS011;15006;48.584;9.186;2024-01-11T10:41:04;96.45;;;48.53;;
27566;SDS011;15006;48.584;9.186;2024-01-11T10:43:32;99.30;;;49.60;;
27566;SDS011;15006;48.584;9.186;2024-01-11T10:46:02;101.63;;;50.72;;
27566;SDS011;15006;48.584;9.186;2024-01-11T10:48:31;93.60;;;48.08;;
27566;SDS011;15006;48.584;9.186;2024-01-11T10:51:05;96.53;;;48.63;;
27566;SDS011;15006;48.584;9.186;2024-01-11T10:53:36;93.13;;;47.38;;
27566;SDS011;15006;48.584;9.186;2024-01-11T10:56:11;94.38;;;47.30;;
27566;SDS011;15006;48.584;9.186;2024-01-11T10:58:39;89.05;;;47.28;;
27566;SDS011;15006;48.584;9.186;2024-01-11T11:01:07;88.75;;;47.20;;
27566;SDS011;15006;48.584;9.186;2024-01-11T11:03:36;93.90;;;48.22;;
27566;SDS011;15006;48.584;9.186;2024-01-11T11:06:04;90.65;;;47.80;;
27566;SDS011;15006;48.584;9.186;2024-01-11T11:08:35;88.25;;;46.42;;
27566;SDS011;15006;48.584;9.186;2024-01-11T11:11:03;85.47;;;46.60;;
27566;SDS011;15006;48.584;9.186;2024-01-11T11:13:33;85.78;;;45.92;;
27566;SDS011;15006;48.584;9.186;2024-01-11T11:16:02;76.10;;;43.10;;
27566;SDS011;15006;48.584;9.186;2024-01-11T11:18:31;75.63;;;42.45;;
27566;SDS011;15006;48.584;9.186;2024-01-11T11:21:00;69.40;;;40.95;;
27566;SDS011;15006;48.584;9.186;2024-01-11T11:23:26;67.53;;;39.50;;
27566;SDS011;15006;48.584;9.186;2024-01-11T11:25:54;67.32;;;39.22;;
27566;SDS011;15006;48.584;9.186;2024-01-11T11:28:23;64.40;;;39.10;;
27566;SDS011;15006;48.584;9.186;2024-01-11T11:30:49;60.95;;;38.10;;
27566;SDS011;15006;48.584;9.186;2024-01-11T11:35:48;60.05;;;36.70;;
27566;SDS011;15006;48.584;9.186;2024-01-11T11:38:23;60.78;;;37.30;;
27566;SDS011;15006;48.584;9.186;2024-01-11T11:40:59;60.33;;;36.30;;
27566;SDS011;15006;48.584;9.186;2024-01-11T11:45:53;54.47;;;35.58;;
27566;SDS011;15006;48.584;9.186;2024-01-11T11:51:10;54.13;;;34.53;;
27566;SDS011;15006;48.584;9.186;2024-01-11T11:53:37;53.67;;;35.67;;
27566;SDS011;15006;48.584;9.186;2024-01-11T11:56:05;55.15;;;35.78;;
27566;SDS011;15006;48.584;9.186;2024-01-11T11:58:33;52.78;;;34.72;;
27566;SDS011;15006;48.584;9.186;2024-01-11T12:01:00;54.67;;;35.53;;
27566;SDS011;15006;48.584;9.186;2024-01-11T12:03:35;51.22;;;34.22;;
27566;SDS011;15006;48.584;9.186;2024-01-11T12:06:07;54.95;;;36.28;;
27566;SDS011;15006;48.584;9.186;2024-01-11T12:08:35;49.33;;;33.70;;
27566;SDS011;15006;48.584;9.186;2024-01-11T12:11:02;52.97;;;34.90;;
27566;SDS011;15006;48.584;9.186;2024-01-11T12:13:29;48.65;;;33.40;;
27566;SDS011;15006;48.584;9.186;2024-01-11T12:15:58;48.00;;;33.53;;
27566;SDS011;15006;48.584;9.186;2024-01-11T12:18:24;50.15;;;33.20;;
27566;SDS011;15006;48.584;9.186;2024-01-11T12:20:50;46.72;;;32.85;;
27566;SDS011;15006;48.584;9.186;2024-01-11T12:23:18;50.08;;;32.92;;
27566;SDS011;15006;48.584;9.186;2024-01-11T12:25:44;47.47;;;33.25;;
27566;SDS011;15006;48.584;9.186;2024-01-11T12:28:10;48.85;;;34.22;;
27566;SDS011;15006;48.584;9.186;2024-01-11T12:30:37;49.63;;;33.95;;
27566;SDS011;15006;48.584;9.186;2024-01-11T12:33:03;44.63;;;32.55;;
27566;SDS011;15006;48.584;9.186;2024-01-11T12:35:30;44.20;;;32.17;;
27566;SDS011;15006;48.584;9.186;2024-01-11T12:38:04;47.97;;;32.40;;
27566;SDS011;15006;48.584;9.186;2024-01-11T12:40:34;45.33;;;32.72;;
27566;SDS011;15006;48.584;9.186;2024-01-11T12:43:05;46.22;;;31.98;;
27566;SDS011;15006;48.584;9.186;2024-01-11T12:45:33;48.25;;;34.00;;
27566;SDS011;15006;48.584;9.186;2024-01-11T12:48:01;47.30;;;34.03;;
27566;SDS011;15006;48.584;9.186;2024-01-11T12:50:29;48.00;;;33.85;;
27566;SDS011;15006;48.584;9.186;2024-01-11T12:55:43;54.55;;;34.50;;
27566;SDS011;15006;48.584;9.186;2024-01-11T12:58:10;45.53;;;32.42;;
27566;SDS011;15006;48.584;9.186;2024-01-11T13:00:36;50.47;;;33.83;;
27566;SDS011;15006;48.584;9.186;2024-01-11T13:03:06;47.50;;;33.28;;
27566;SDS011;15006;48.584;9.186;2024-01-11T13:05:35;46.17;;;32.42;;
27566;SDS011;15006;48.584;9.186;2024-01-11T13:08:01;45.97;;;32.38;;
27566;SDS011;15006;48.584;9.186;2024-01-11T13:10:32;45.03;;;32.22;;
27566;SDS011;15006;48.584;9.186;2024-01-11T13:12:59;46.92;;;33.85;;
27566;SDS011;15006;48.584;9.186;2024-01-11T13:15:25;44.80;;;32.10;;
27566;SDS011;15006;48.584;9.186;2024-01-11T13:17:51;42.97;;;31.75;;
27566;SDS011;15006;48.584;9.186;2024-01-11T13:20:18;44.00;;;31.92;;
27566;SDS011;15006;48.584;9.186;2024-01-11T13:22:44;45.40;;;33.30;;
27566;SDS011;15006;48.584;9.186;2024-01-11T13:25:10;43.65;;;31.98;;
27566;SDS011;15006;48.584;9.186;2024-01-11T13:27:36;44.00;;;31.92;;
27566;SDS011;15006;48.584;9.186;2024-01-11T13:30:02;48.10;;;33.00;;
27566;SDS011;15006;48.584;9.186;2024-01-11T13:32:30;46.38;;;32.65;;
27566;SDS011;15006;48.584;9.186;2024-01-11T13:34:55;43.17;;;31.70;;
27566;SDS011;15006;48.584;9.186;2024-01-11T13:37:22;43.65;;;32.65;;
27566;SDS011;15006;48.584;9.186;2024-01-11T13:39:48;45.97;;;32.85;;
27566;SDS011;15006;48.584;9.186;2024-01-11T13:42:14;46.47;;;32.65;;
27566;SDS011;15006;48.584;9.186;2024-01-11T13:44:41;46.78;;;33.17;;
27566;SDS011;15006;48.584;9.186;2024-01-11T13:47:07;46.28;;;33.42;;
27566;SDS011;15006;48.584;9.186;2024-01-11T13:49:32;45.95;;;33.60;;
27566;SDS011;15006;48.584;9.186;2024-01-11T13:51:59;48.20;;;34.05;;
27566;SDS011;15006;48.584;9.186;2024-01-11T13:54:25;45.13;;;32.40;;
27566;SDS011;15006;48.584;9.186;2024-01-11T13:56:51;46.78;;;33.28;;
27566;SDS011;15006;48.584;9.186;2024-01-11T13:59:18;50.95;;;34.22;;
27566;SDS011;15006;48.584;9.186;2024-01-11T14:01:44;48.03;;;33.47;;
27566;SDS011;15006;48.584;9.186;2024-01-11T14:04:09;49.55;;;33.65;;
27566;SDS011;15006;48.584;9.186;2024-01-11T14:06:35;46.17;;;33.40;;
27566;SDS011;15006;48.584;9.186;2024-01-11T14:09:02;46.47;;;33.78;;
27566;SDS011;15006;48.584;9.186;2024-01-11T14:11:29;50.97;;;35.30;;
27566;SDS011;15006;48.584;9.186;2024-01-11T14:13:55;44.45;;;33.65;;
27566;SDS011;15006;48.584;9.186;2024-01-11T14:16:21;50.60;;;35.17;;
27566;SDS011;15006;48.584;9.186;2024-01-11T14:18:47;48.03;;;33.72;;
27566;SDS011;15006;48.584;9.186;2024-01-11T14:21:14;50.05;;;34.33;;
27566;SDS011;15006;48.584;9.186;2024-01-11T14:23:40;50.33;;;33.80;;
27566;SDS011;15006;48.584;9.186;2024-01-11T14:26:06;49.42;;;34.30;;